Time;durP1;ratioP1;P1;durP2;ratioP2;P2;SDS_P1;SDS_P2;PMS_P1;PMS_P2;Temp;Humidity;BMP_temperature;BMP_pressure;BME280_temperature;BME280_humidity;BME280_pressure;Samples;Min_cycle;Max_cycle;Signal;HPM_P1;HPM_P2
2022/09/17 00:00:14;;;;;;;;;;;8.60;99.90;;;;;;5060284;28;20519;-80
2022/09/17 00:02:43;;;;;;;;;;;8.50;99.90;;;;;;5066838;28;19920;-80
2022/09/17 00:05:09;;;;;;;;;;;8.50;99.90;;;;;;5058458;28;19962;-79
2022/09/17 00:07:34;;;;;;;;;;;8.50;99.90;;;;;;5071046;28;19921;-80
2022/09/17 00:10:00;;;;;;;;;;;8.50;99.90;;;;;;5070962;28;19959;-79
2022/09/17 00:12:26;;;;;;;;;;;8.50;99.90;;;;;;5075850;28;19996;-80
2022/09/17 00:14:51;;;;;;;;;;;8.50;99.90;;;;;;5081851;28;19975;-80
2022/09/17 00:17:17;;;;;;;;;;;8.50;99.90;;;;;;5057750;28;19920;-80
2022/09/17 00:19:42;;;;;;;;;;;8.50;99.90;;;;;;5048106;28;19956;-79
2022/09/17 00:22:08;;;;;;;;;;;8.50;99.90;;;;;;5073696;28;19924;-82
2022/09/17 00:24:34;;;;;;;;;;;8.50;99.90;;;;;;5055934;28;19919;-82
2022/09/17 00:26:59;;;;;;;;;;;8.50;99.90;;;;;;5072556;28;19966;-81
2022/09/17 00:29:25;;;;;;;;;;;8.50;99.90;;;;;;5072617;28;19927;-80
2022/09/17 00:31:50;;;;;;;;;;;8.50;99.90;;;;;;5061022;28;19916;-81
2022/09/17 00:34:16;;;;;;;;;;;8.40;99.90;;;;;;5065660;28;19921;-80
2022/09/17 00:36:42;;;;;;;;;;;8.40;99.90;;;;;;5079370;28;19921;-81
2022/09/17 00:39:08;;;;;;;;;;;8.40;99.90;;;;;;5067015;28;19939;-80
2022/09/17 00:41:34;;;;;;;;;;;8.40;99.90;;;;;;5069256;28;19913;-80
2022/09/17 00:44:01;;;;;;;;;;;8.40;99.90;;;;;;5080667;28;20377;-79
2022/09/17 00:46:33;;;;;;;;;;;8.40;99.90;;;;;;5075760;28;19916;-80
2022/09/17 00:49:01;;;;;;;;;;;8.40;99.90;;;;;;5073171;28;19913;-77
2022/09/17 00:51:32;;;;;;;;;;;8.40;99.90;;;;;;5067910;28;19947;-78
2022/09/17 00:53:58;;;;;;;;;;;8.30;99.90;;;;;;5065210;28;19917;-80
2022/09/17 00:56:26;;;;;;;;;;;8.40;99.90;;;;;;5067498;28;19919;-81
2022/09/17 00:58:52;;;;;;;;;;;8.40;99.90;;;;;;5066616;28;19946;-79
2022/09/17 01:01:18;;;;;;;;;;;8.40;99.90;;;;;;5071833;28;20002;-80
2022/09/17 01:03:44;;;;;;;;;;;8.40;99.90;;;;;;5068928;28;20373;-79
2022/09/17 01:06:20;;;;;;;;;;;8.40;99.90;;;;;;5067127;28;19916;-80
2022/09/17 01:08:59;;;;;;;;;;;8.40;99.90;;;;;;5069470;28;19920;-82
2022/09/17 01:11:25;;;;;;;;;;;8.40;99.90;;;;;;5061566;28;20394;-80
2022/09/17 01:13:50;;;;;;;;;;;8.40;99.90;;;;;;5058553;28;19912;-80
2022/09/17 01:16:19;;;;;;;;;;;8.40;99.90;;;;;;5075775;28;19921;-80
2022/09/17 01:18:45;;;;;;;;;;;8.40;99.90;;;;;;5070711;28;20530;-81
2022/09/17 01:21:29;;;;;;;;;;;8.40;99.90;;;;;;5071763;28;19909;-79
2022/09/17 01:24:21;;;;;;;;;;;8.40;99.90;;;;;;5068108;28;20334;-80
2022/09/17 01:27:04;;;;;;;;;;;8.40;99.90;;;;;;5074079;28;19924;-81
2022/09/17 01:29:40;;;;;;;;;;;8.40;99.90;;;;;;5068497;28;19995;-79
2022/09/17 01:32:05;;;;;;;;;;;8.40;99.90;;;;;;5072397;28;19923;-80
2022/09/17 01:34:38;;;;;;;;;;;8.40;99.90;;;;;;5073605;28;20003;-80
2022/09/17 01:37:07;;;;;;;;;;;8.50;99.90;;;;;;5074219;28;20011;-80
2022/09/17 01:39:42;;;;;;;;;;;8.50;99.90;;;;;;5070495;28;20376;-79
2022/09/17 01:42:30;;;;;;;;;;;8.50;99.90;;;;;;5075604;28;20031;-80
2022/09/17 01:45:04;;;;;;;;;;;8.60;99.90;;;;;;5071768;28;19923;-80
2022/09/17 01:47:32;;;;;;;;;;;8.60;99.90;;;;;;5067228;28;19923;-81
2022/09/17 01:50:07;;;;;;;;;;;8.60;99.90;;;;;;5059445;28;19913;-79
2022/09/17 01:52:34;;;;;;;;;;;8.60;99.90;;;;;;5071457;28;19952;-77
2022/09/17 01:55:03;;;;;;;;;;;8.60;99.90;;;;;;5071872;28;19916;-79
2022/09/17 01:57:35;;;;;;;;;;;8.70;99.90;;;;;;5069682;28;19912;-78
2022/09/17 02:00:00;;;;;;;;;;;8.70;99.90;;;;;;5065931;28;19912;-79
2022/09/17 02:02:29;;;;;;;;;;;8.70;99.90;;;;;;5068583;28;20008;-80
2022/09/17 02:05:06;;;;;;;;;;;8.70;99.90;;;;;;5072201;28;20388;-79
2022/09/17 02:07:37;;;;;;;;;;;8.70;99.90;;;;;;5074748;28;20399;-79
2022/09/17 02:10:06;;;;;;;;;;;8.80;99.90;;;;;;5062044;28;20189;-80
2022/09/17 02:12:34;;;;;;;;;;;8.70;99.90;;;;;;5071768;28;19978;-79
2022/09/17 02:15:01;;;;;;;;;;;8.70;99.90;;;;;;5069264;28;20012;-80
2022/09/17 02:17:30;;;;;;;;;;;8.80;99.90;;;;;;5046178;28;19924;-79
2022/09/17 02:19:57;;;;;;;;;;;8.70;99.90;;;;;;5065352;28;19916;-80
2022/09/17 02:22:26;;;;;;;;;;;8.70;99.90;;;;;;5070739;28;20427;-80
2022/09/17 02:25:09;;;;;;;;;;;8.80;99.90;;;;;;5070367;28;19916;-79
2022/09/17 02:27:38;;;;;;;;;;;8.80;99.90;;;;;;5056443;28;19917;-79
2022/09/17 02:30:04;;;;;;;;;;;8.80;99.90;;;;;;5056976;28;19912;-79
2022/09/17 02:32:30;;;;;;;;;;;8.80;99.90;;;;;;5069704;28;19962;-80
2022/09/17 02:34:55;;;;;;;;;;;8.70;99.90;;;;;;5041179;28;20277;-80
2022/09/17 02:37:21;;;;;;;;;;;8.70;99.90;;;;;;5061770;28;19995;-80
2022/09/17 02:39:47;;;;;;;;;;;8.70;99.90;;;;;;5052752;28;19920;-79
2022/09/17 02:42:14;;;;;;;;;;;8.70;99.90;;;;;;5052816;28;19927;-79
2022/09/17 02:44:58;;;;;;;;;;;8.60;99.90;;;;;;5070954;28;19913;-79
2022/09/17 02:47:42;;;;;;;;;;;8.70;99.90;;;;;;5072514;28;19917;-79
2022/09/17 02:50:17;;;;;;;;;;;8.70;99.90;;;;;;5033396;28;19913;-80
2022/09/17 02:52:58;;;;;;;;;;;8.60;99.90;;;;;;5070635;28;19919;-81
2022/09/17 02:55:32;;;;;;;;;;;8.60;99.90;;;;;;5053927;28;19917;-79
2022/09/17 02:58:13;;;;;;;;;;;8.60;99.90;;;;;;5058812;28;20335;-79
2022/09/17 03:00:39;;;;;;;;;;;8.70;99.90;;;;;;5063916;28;20381;-78
2022/09/17 03:03:08;;;;;;;;;;;8.70;99.90;;;;;;5058382;28;19916;-79
2022/09/17 03:05:35;;;;;;;;;;;8.70;99.90;;;;;;5064593;28;20588;-79
2022/09/17 03:08:01;;;;;;;;;;;8.60;99.90;;;;;;5069557;28;19916;-78
2022/09/17 03:10:32;;;;;;;;;;;8.60;99.90;;;;;;5057576;28;19916;-81
2022/09/17 03:12:58;;;;;;;;;;;8.60;99.90;;;;;;5051131;28;19917;-79
2022/09/17 03:15:24;;;;;;;;;;;8.60;99.90;;;;;;5040258;28;19909;-80
2022/09/17 03:17:49;;;;;;;;;;;8.60;99.90;;;;;;5060448;28;20015;-79
2022/09/17 03:20:15;;;;;;;;;;;8.60;99.90;;;;;;5058572;28;19967;-79
2022/09/17 03:22:41;;;;;;;;;;;8.60;99.90;;;;;;5069494;28;20340;-80
2022/09/17 03:25:06;;;;;;;;;;;8.60;99.90;;;;;;5052808;28;19927;-80
2022/09/17 03:27:32;;;;;;;;;;;8.60;99.90;;;;;;5069639;28;19920;-79
2022/09/17 03:29:58;;;;;;;;;;;8.60;99.90;;;;;;5070413;28;19923;-80
2022/09/17 03:32:24;;;;;;;;;;;8.60;99.90;;;;;;5066495;28;19916;-80
2022/09/17 03:34:49;;;;;;;;;;;8.60;99.90;;;;;;5064514;28;19976;-80
2022/09/17 03:37:15;;;;;;;;;;;8.60;99.90;;;;;;5077529;28;20020;-81
2022/09/17 03:39:41;;;;;;;;;;;8.60;99.90;;;;;;5055408;28;20442;-80
2022/09/17 03:42:06;;;;;;;;;;;8.60;99.90;;;;;;5073881;28;19917;-81
2022/09/17 03:44:32;;;;;;;;;;;8.60;99.90;;;;;;5080425;28;20257;-82
2022/09/17 03:46:58;;;;;;;;;;;8.60;99.90;;;;;;5064958;28;19921;-81
2022/09/17 03:49:23;;;;;;;;;;;8.60;99.90;;;;;;5082357;28;19919;-81
2022/09/17 03:51:49;;;;;;;;;;;8.60;99.90;;;;;;5078017;28;19921;-82
2022/09/17 03:54:14;;;;;;;;;;;8.60;99.90;;;;;;5070199;28;20244;-82
2022/09/17 03:56:40;;;;;;;;;;;8.60;99.90;;;;;;5072194;28;20011;-81
2022/09/17 03:59:06;;;;;;;;;;;8.60;99.90;;;;;;5071246;28;19943;-80
2022/09/17 04:01:31;;;;;;;;;;;8.60;99.90;;;;;;5057628;28;19928;-81
2022/09/17 04:03:57;;;;;;;;;;;8.60;99.90;;;;;;5081421;28;19917;-81
2022/09/17 04:06:22;;;;;;;;;;;8.70;99.90;;;;;;5076866;28;19924;-80
2022/09/17 04:08:48;;;;;;;;;;;8.70;99.90;;;;;;5039365;28;19974;-80
2022/09/17 04:11:14;;;;;;;;;;;8.60;99.90;;;;;;5069514;28;20388;-80
2022/09/17 04:13:39;;;;;;;;;;;8.70;99.90;;;;;;5069278;28;19923;-80
2022/09/17 04:16:05;;;;;;;;;;;8.60;99.90;;;;;;5070255;28;19970;-80
2022/09/17 04:18:30;;;;;;;;;;;8.60;99.90;;;;;;5073143;28;19952;-80
2022/09/17 04:20:56;;;;;;;;;;;8.60;99.90;;;;;;5058944;28;19917;-80
2022/09/17 04:23:22;;;;;;;;;;;8.70;99.90;;;;;;5059861;28;20003;-79
2022/09/17 04:25:47;;;;;;;;;;;8.60;99.90;;;;;;5070967;28;20435;-80
2022/09/17 04:28:13;;;;;;;;;;;8.60;99.90;;;;;;5073062;28;19977;-81
2022/09/17 04:30:41;;;;;;;;;;;8.60;99.90;;;;;;5054653;28;19939;-80
2022/09/17 04:33:07;;;;;;;;;;;8.60;99.90;;;;;;5064528;28;19951;-80
2022/09/17 04:35:33;;;;;;;;;;;8.70;99.90;;;;;;5070611;28;20510;-80
2022/09/17 04:37:59;;;;;;;;;;;8.60;99.90;;;;;;5058397;28;19935;-80
2022/09/17 04:40:25;;;;;;;;;;;8.60;99.90;;;;;;5052973;28;19912;-80
2022/09/17 04:42:52;;;;;;;;;;;8.60;99.90;;;;;;5074218;28;19913;-80
2022/09/17 04:45:17;;;;;;;;;;;8.60;99.90;;;;;;5072311;28;19927;-79
2022/09/17 04:47:43;;;;;;;;;;;8.60;99.90;;;;;;5074361;28;19916;-78
2022/09/17 04:50:09;;;;;;;;;;;8.60;99.90;;;;;;5073143;28;19992;-79
2022/09/17 04:52:34;;;;;;;;;;;8.60;99.90;;;;;;5072661;28;19942;-79
2022/09/17 04:55:00;;;;;;;;;;;8.50;99.90;;;;;;5070639;28;19912;-79
2022/09/17 04:57:26;;;;;;;;;;;8.50;99.90;;;;;;5070731;28;20019;-80
2022/09/17 04:59:52;;;;;;;;;;;8.60;99.90;;;;;;5057513;28;19929;-81
2022/09/17 05:02:18;;;;;;;;;;;8.50;99.90;;;;;;5073115;28;19912;-80
2022/09/17 05:04:43;;;;;;;;;;;8.50;99.90;;;;;;5055203;28;19927;-80
2022/09/17 05:07:09;;;;;;;;;;;8.50;99.90;;;;;;5069273;28;19912;-80
2022/09/17 05:09:34;;;;;;;;;;;8.50;99.90;;;;;;5075269;28;19988;-80
2022/09/17 05:12:00;;;;;;;;;;;8.50;99.90;;;;;;5056228;28;19924;-80
2022/09/17 05:14:25;;;;;;;;;;;8.40;99.90;;;;;;5055930;28;20002;-80
2022/09/17 05:16:51;;;;;;;;;;;8.40;99.90;;;;;;5049877;28;19916;-81
2022/09/17 05:19:17;;;;;;;;;;;8.40;99.90;;;;;;5055805;28;20365;-81
2022/09/17 05:21:43;;;;;;;;;;;8.40;99.90;;;;;;5055618;28;19943;-81
2022/09/17 05:24:08;;;;;;;;;;;8.40;99.90;;;;;;5055348;28;20329;-81
2022/09/17 05:26:34;;;;;;;;;;;8.40;99.90;;;;;;5070361;28;19962;-80
2022/09/17 05:29:00;;;;;;;;;;;8.40;99.90;;;;;;5070843;28;20019;-80
2022/09/17 05:31:25;;;;;;;;;;;8.40;99.90;;;;;;5064779;28;20618;-80
2022/09/17 05:33:51;;;;;;;;;;;8.40;99.90;;;;;;5052640;28;19917;-80
2022/09/17 05:36:16;;;;;;;;;;;8.40;99.90;;;;;;5068642;28;19923;-80
2022/09/17 05:38:42;;;;;;;;;;;8.40;99.90;;;;;;5052027;28;19916;-81
2022/09/17 05:41:07;;;;;;;;;;;8.40;99.90;;;;;;5034069;28;20304;-80
2022/09/17 05:43:33;;;;;;;;;;;8.40;99.90;;;;;;5053553;28;20381;-81
2022/09/17 05:46:03;;;;;;;;;;;8.40;99.90;;;;;;5073327;28;19978;-80
2022/09/17 05:48:28;;;;;;;;;;;8.40;99.90;;;;;;5071820;28;19919;-80
2022/09/17 05:50:54;;;;;;;;;;;8.50;99.90;;;;;;5049278;28;19912;-81
2022/09/17 05:53:20;;;;;;;;;;;8.40;99.90;;;;;;5065841;28;19923;-81
2022/09/17 05:55:45;;;;;;;;;;;8.50;99.90;;;;;;5065579;28;20033;-81
2022/09/17 05:58:15;;;;;;;;;;;8.50;99.90;;;;;;5070328;28;20285;-80
2022/09/17 06:00:41;;;;;;;;;;;8.50;99.90;;;;;;5063060;28;19924;-81
2022/09/17 06:03:07;;;;;;;;;;;8.50;99.90;;;;;;5067833;28;19982;-81
2022/09/17 06:05:33;;;;;;;;;;;8.50;99.90;;;;;;5070468;28;19923;-81
2022/09/17 06:07:59;;;;;;;;;;;8.60;99.90;;;;;;5051415;28;20003;-79
2022/09/17 06:10:24;;;;;;;;;;;8.60;99.90;;;;;;5051008;28;20376;-80
2022/09/17 06:12:57;;;;;;;;;;;8.60;99.90;;;;;;5054573;28;20569;-80
2022/09/17 06:15:22;;;;;;;;;;;8.70;99.90;;;;;;5064408;28;20369;-80
2022/09/17 06:17:48;;;;;;;;;;;8.70;99.90;;;;;;5064218;28;19912;-79
2022/09/17 06:20:15;;;;;;;;;;;8.70;99.90;;;;;;5021705;28;19925;-79
2022/09/17 06:22:41;;;;;;;;;;;8.80;99.90;;;;;;5053424;28;20015;-80
2022/09/17 06:25:07;;;;;;;;;;;8.80;99.90;;;;;;5053505;28;19912;-81
2022/09/17 06:27:33;;;;;;;;;;;8.80;99.90;;;;;;5061010;28;19946;-81
2022/09/17 06:29:58;;;;;;;;;;;8.80;99.90;;;;;;5070037;28;20850;-81
2022/09/17 06:32:24;;;;;;;;;;;8.80;99.90;;;;;;5049678;28;19917;-81
2022/09/17 06:34:50;;;;;;;;;;;8.80;99.90;;;;;;5054997;28;19912;-81
2022/09/17 06:37:15;;;;;;;;;;;8.80;99.90;;;;;;5070004;28;20003;-80
2022/09/17 06:39:41;;;;;;;;;;;8.80;99.90;;;;;;5033869;28;20480;-82
2022/09/17 06:42:07;;;;;;;;;;;8.80;99.90;;;;;;5066803;28;20006;-82
2022/09/17 06:44:32;;;;;;;;;;;8.80;99.90;;;;;;5053321;28;19913;-82
2022/09/17 06:46:58;;;;;;;;;;;8.80;99.90;;;;;;5062998;28;20347;-80
2022/09/17 06:49:23;;;;;;;;;;;8.80;99.90;;;;;;5068430;28;19912;-81
2022/09/17 06:51:49;;;;;;;;;;;8.80;99.90;;;;;;5070879;28;19912;-81
2022/09/17 06:54:15;;;;;;;;;;;8.90;99.90;;;;;;5067472;28;19960;-83
2022/09/17 06:56:40;;;;;;;;;;;8.90;99.90;;;;;;5051726;28;19920;-81
2022/09/17 06:59:06;;;;;;;;;;;8.90;99.90;;;;;;5063356;28;19916;-80
2022/09/17 07:01:31;;;;;;;;;;;9.00;99.90;;;;;;5066599;28;19916;-81
2022/09/17 07:03:57;;;;;;;;;;;9.00;99.90;;;;;;5072117;28;19974;-83
2022/09/17 07:06:23;;;;;;;;;;;9.10;99.90;;;;;;5071134;28;19928;-82
2022/09/17 07:08:50;;;;;;;;;;;9.10;99.90;;;;;;5059169;28;20202;-82
2022/09/17 07:11:16;;;;;;;;;;;9.10;99.90;;;;;;5050169;28;19947;-81
2022/09/17 07:13:41;;;;;;;;;;;9.10;99.90;;;;;;5029440;28;19939;-82
2022/09/17 07:16:08;;;;;;;;;;;9.10;99.90;;;;;;5068500;28;19916;-83
2022/09/17 07:18:34;;;;;;;;;;;9.10;99.90;;;;;;5047221;28;19921;-83
2022/09/17 07:21:00;;;;;;;;;;;9.10;99.90;;;;;;5034382;28;19917;-83
2022/09/17 07:23:27;;;;;;;;;;;9.10;99.90;;;;;;5068600;28;20549;-80
2022/09/17 07:25:53;;;;;;;;;;;9.10;99.90;;;;;;5053180;28;19927;-82
2022/09/17 07:28:19;;;;;;;;;;;9.10;99.90;;;;;;5050840;28;19917;-83
2022/09/17 07:30:45;;;;;;;;;;;9.10;99.90;;;;;;5062719;28;19916;-81
2022/09/17 07:33:11;;;;;;;;;;;9.10;99.90;;;;;;5064394;28;20365;-83
2022/09/17 07:35:36;;;;;;;;;;;9.20;99.90;;;;;;5051409;28;20606;-83
2022/09/17 07:38:02;;;;;;;;;;;9.10;99.90;;;;;;5059879;28;20347;-83
2022/09/17 07:40:27;;;;;;;;;;;9.10;99.90;;;;;;5046628;28;19951;-81
2022/09/17 07:42:56;;;;;;;;;;;9.20;99.90;;;;;;5060173;28;19924;-81
2022/09/17 07:45:22;;;;;;;;;;;9.20;99.90;;;;;;5064550;28;20009;-83
2022/09/17 07:47:48;;;;;;;;;;;9.20;99.90;;;;;;5041822;28;21321;-81
2022/09/17 07:50:13;;;;;;;;;;;9.30;99.90;;;;;;5053209;28;19916;-82
2022/09/17 07:52:44;;;;;;;;;;;9.30;99.90;;;;;;5049473;28;19917;-82
2022/09/17 07:55:10;;;;;;;;;;;9.30;99.90;;;;;;5063902;28;19951;-81
2022/09/17 07:57:36;;;;;;;;;;;9.40;99.90;;;;;;5032060;28;19998;-82
2022/09/17 08:00:02;;;;;;;;;;;9.50;99.90;;;;;;5070878;28;19998;-81
2022/09/17 08:02:37;;;;;;;;;;;9.50;99.90;;;;;;5065861;28;19951;-83
2022/09/17 08:05:02;;;;;;;;;;;9.60;99.90;;;;;;5062193;28;19947;-81
2022/09/17 08:07:28;;;;;;;;;;;9.60;99.90;;;;;;5048141;28;19921;-82
2022/09/17 08:09:54;;;;;;;;;;;9.70;99.90;;;;;;5059218;28;19923;-82
2022/09/17 08:12:21;;;;;;;;;;;9.80;99.90;;;;;;5069471;28;19917;-83
2022/09/17 08:14:47;;;;;;;;;;;9.90;99.90;;;;;;5049393;28;20286;-81
2022/09/17 08:17:12;;;;;;;;;;;10.00;99.90;;;;;;5037193;28;19970;-82
2022/09/17 08:19:38;;;;;;;;;;;10.00;99.90;;;;;;5069939;28;19985;-82
2022/09/17 08:22:03;;;;;;;;;;;10.20;99.90;;;;;;5072845;28;19912;-81
2022/09/17 08:24:29;;;;;;;;;;;10.20;99.90;;;;;;5050988;28;19955;-81
2022/09/17 08:26:55;;;;;;;;;;;10.30;99.90;;;;;;5053726;28;19920;-82
2022/09/17 08:29:20;;;;;;;;;;;10.30;99.90;;;;;;5063564;28;19912;-82
2022/09/17 08:31:46;;;;;;;;;;;10.40;99.90;;;;;;5057288;28;19921;-82
2022/09/17 08:34:11;;;;;;;;;;;10.40;99.90;;;;;;5031048;28;19966;-80
2022/09/17 08:36:37;;;;;;;;;;;10.50;99.90;;;;;;5067262;28;19928;-82
2022/09/17 08:39:03;;;;;;;;;;;10.50;99.90;;;;;;5070538;28;20007;-81
2022/09/17 08:41:40;;;;;;;;;;;10.50;99.90;;;;;;5070253;28;20556;-81
2022/09/17 08:44:14;;;;;;;;;;;10.50;99.90;;;;;;5067139;28;19919;-80
2022/09/17 08:46:43;;;;;;;;;;;10.50;99.90;;;;;;5055607;28;19917;-82
2022/09/17 08:49:35;;;;;;;;;;;10.50;99.90;;;;;;5056678;28;20361;-84
2022/09/17 08:52:14;;;;;;;;;;;10.50;99.90;;;;;;5072444;28;20003;-82
2022/09/17 08:54:42;;;;;;;;;;;10.60;99.90;;;;;;5063234;28;19936;-82
2022/09/17 08:57:24;;;;;;;;;;;10.60;99.90;;;;;;5065124;28;20024;-82
2022/09/17 08:59:55;;;;;;;;;;;10.60;99.90;;;;;;5048030;28;19913;-81
2022/09/17 09:02:39;;;;;;;;;;;10.70;99.90;;;;;;5063482;28;19970;-82
2022/09/17 09:05:12;;;;;;;;;;;10.80;99.90;;;;;;5065076;28;20292;-80
2022/09/17 09:07:50;;;;;;;;;;;10.80;99.90;;;;;;5073653;28;19920;-82
2022/09/17 09:10:19;;;;;;;;;;;10.90;99.90;;;;;;5071890;28;19919;-82
2022/09/17 09:12:45;;;;;;;;;;;10.90;99.90;;;;;;5048223;28;19913;-81
2022/09/17 09:15:29;;;;;;;;;;;11.00;99.90;;;;;;5051118;28;20059;-81
2022/09/17 09:17:56;;;;;;;;;;;11.10;99.90;;;;;;5047932;28;20434;-82
2022/09/17 09:20:28;;;;;;;;;;;11.20;99.90;;;;;;5059529;28;19913;-81
2022/09/17 09:22:54;;;;;;;;;;;11.20;99.90;;;;;;5049168;28;19916;-83
2022/09/17 09:25:26;;;;;;;;;;;11.30;99.90;;;;;;5048527;28;20051;-81
2022/09/17 09:28:03;;;;;;;;;;;11.40;99.90;;;;;;5065887;28;19924;-82
2022/09/17 09:30:48;;;;;;;;;;;11.40;99.90;;;;;;5066958;28;19912;-81
2022/09/17 09:33:16;;;;;;;;;;;11.40;99.90;;;;;;5044530;28;19913;-80
2022/09/17 09:35:43;;;;;;;;;;;11.40;99.90;;;;;;5067522;28;20007;-82
2022/09/17 09:38:08;;;;;;;;;;;11.40;99.90;;;;;;5045787;28;19959;-81
2022/09/17 09:40:45;;;;;;;;;;;11.30;99.90;;;;;;5062697;28;19913;-80
2022/09/17 09:43:15;;;;;;;;;;;11.30;99.90;;;;;;5052621;28;19943;-81
2022/09/17 09:45:41;;;;;;;;;;;11.20;99.90;;;;;;5070183;28;20583;-82
2022/09/17 09:48:13;;;;;;;;;;;11.10;99.90;;;;;;5063713;28;19938;-81
2022/09/17 09:50:49;;;;;;;;;;;11.00;99.90;;;;;;5053674;28;19920;-81
2022/09/17 09:53:28;;;;;;;;;;;11.00;99.90;;;;;;5069381;28;19920;-80
2022/09/17 09:55:53;;;;;;;;;;;11.00;99.90;;;;;;5063162;28;19924;-82
2022/09/17 09:58:28;;;;;;;;;;;11.00;99.90;;;;;;5049813;28;19908;-81
2022/09/17 10:00:53;;;;;;;;;;;11.00;99.90;;;;;;5063489;28;19916;-81
2022/09/17 10:03:20;;;;;;;;;;;11.00;99.90;;;;;;5057765;28;19924;-82
2022/09/17 10:05:59;;;;;;;;;;;11.00;99.90;;;;;;5062778;28;19920;-81
2022/09/17 10:08:26;;;;;;;;;;;11.00;99.90;;;;;;5061262;28;19966;-80
2022/09/17 10:10:56;;;;;;;;;;;11.00;99.90;;;;;;5062167;28;20484;-82
2022/09/17 10:13:21;;;;;;;;;;;11.00;99.90;;;;;;5056494;28;19919;-81
2022/09/17 10:15:47;;;;;;;;;;;11.10;99.90;;;;;;5043817;28;20015;-81
2022/09/17 10:18:17;;;;;;;;;;;11.20;99.90;;;;;;5056605;28;20346;-80
2022/09/17 10:20:50;;;;;;;;;;;11.30;99.90;;;;;;5057755;28;19948;-81
2022/09/17 10:23:16;;;;;;;;;;;11.40;99.90;;;;;;5061398;28;20394;-80
2022/09/17 10:25:44;;;;;;;;;;;11.50;99.90;;;;;;5063213;28;19917;-81
2022/09/17 10:28:30;;;;;;;;;;;11.60;99.90;;;;;;5061402;28;19952;-82
2022/09/17 17:54:44;;;;;;;;;;;7.70;99.90;;;;;;5099745;27;20614;-80
2022/09/17 17:57:10;;;;;;;;;;;7.60;99.90;;;;;;5068846;28;19926;-80
2022/09/17 17:59:36;;;;;;;2.10;0.55;;;7.50;99.90;;;;;;5062686;28;19916;-79
2022/09/17 18:02:01;;;;;;;1.27;0.80;;;7.50;99.90;;;;;;5074017;28;20044;-80
2022/09/17 18:04:27;;;;;;;0.98;0.90;;;7.60;99.90;;;;;;5068004;28;20092;-81
2022/09/17 18:06:53;;;;;;;0.98;0.80;;;7.60;99.90;;;;;;5078852;28;20044;-80
2022/09/17 18:09:18;;;;;;;4.00;0.80;;;7.60;99.90;;;;;;5069730;28;20483;-81
2022/09/17 18:11:44;;;;;;;1.95;1.15;;;7.60;99.90;;;;;;5053320;28;20016;-81
2022/09/17 18:14:13;;;;;;;5.40;1.58;;;7.70;99.90;;;;;;5048638;28;20419;-81
2022/09/17 18:16:39;;;;;;;1.92;1.30;;;7.70;99.90;;;;;;5044973;28;20050;-80
2022/09/17 18:19:05;;;;;;;1.83;1.20;;;7.70;99.90;;;;;;5093658;28;20021;-80
2022/09/17 18:21:31;;;;;;;1.77;1.40;;;7.70;99.90;;;;;;5071195;28;20036;-80
2022/09/17 18:23:57;;;;;;;1.55;1.30;;;7.70;99.90;;;;;;5073508;28;20035;-79
2022/09/17 18:26:25;;;;;;;2.85;1.50;;;7.70;99.90;;;;;;5047023;28;20044;-80
2022/09/17 18:28:51;;;;;;;2.05;1.52;;;7.80;99.90;;;;;;5065743;28;20032;-80
2022/09/17 18:31:30;;;;;;;4.70;1.30;;;7.80;99.90;;;;;;5075376;28;20684;-80
2022/09/17 18:33:58;;;;;;;4.20;1.45;;;7.80;99.90;;;;;;5085395;28;20602;-80
2022/09/17 18:36:25;;;;;;;1.55;1.42;;;7.80;99.90;;;;;;5062364;28;20047;-80
2022/09/17 18:39:00;;;;;;;2.17;1.40;;;7.80;99.90;;;;;;5092386;28;20020;-81
2022/09/17 18:41:27;;;;;;;2.05;1.45;;;7.80;99.90;;;;;;5090339;28;20032;-80
2022/09/17 18:43:52;;;;;;;5.18;1.70;;;7.90;99.90;;;;;;5083946;28;20034;-80
2022/09/17 18:46:18;;;;;;;3.15;1.63;;;7.90;99.90;;;;;;5078672;28;20028;-80
2022/09/17 18:48:44;;;;;;;34.28;2.90;;;7.90;99.90;;;;;;5062856;28;20058;-80
2022/09/17 18:51:15;;;;;;;1.30;1.20;;;7.90;99.90;;;;;;5092857;28;20051;-80
2022/09/17 18:53:41;;;;;;;2.17;1.35;;;7.90;99.90;;;;;;5081465;28;20044;-81
2022/09/17 18:56:24;;;;;;;2.35;1.50;;;7.90;99.90;;;;;;5054952;28;20088;-80
2022/09/17 18:58:52;;;;;;;3.25;1.13;;;7.90;99.90;;;;;;5080707;28;20484;-80
2022/09/17 19:01:20;;;;;;;2.35;1.30;;;7.90;99.90;;;;;;5091427;28;20601;-80
2022/09/17 19:03:46;;;;;;;1.38;1.27;;;7.90;99.90;;;;;;5091460;28;20051;-80
2022/09/17 19:06:16;;;;;;;1.83;1.52;;;8.00;99.90;;;;;;5065106;28;20071;-80
2022/09/17 19:08:43;;;;;;;1.60;1.50;;;8.00;99.90;;;;;;5059874;28;20100;-81
2022/09/17 19:11:09;;;;;;;1.45;1.35;;;8.00;99.90;;;;;;5085364;28;20020;-79
2022/09/17 19:13:41;;;;;;;12.85;3.38;;;8.00;99.90;;;;;;5067938;28;20036;-80
2022/09/17 19:16:08;;;;;;;1.30;1.20;;;8.00;99.90;;;;;;5052122;28;20036;-81
2022/09/17 19:18:35;;;;;;;1.60;1.10;;;8.00;99.90;;;;;;5089833;28;20028;-80
2022/09/17 19:21:06;;;;;;;0.90;0.90;;;7.90;99.90;;;;;;5089380;28;20071;-80
2022/09/17 19:23:32;;;;;;;2.10;1.00;;;8.00;99.90;;;;;;5070935;28;20035;-81
2022/09/17 19:26:09;;;;;;;1.02;1.02;;;8.00;99.90;;;;;;5088797;28;20031;-81
2022/09/17 19:28:35;;;;;;;0.80;0.80;;;8.00;99.90;;;;;;5068372;28;20029;-81
2022/09/17 19:31:09;;;;;;;1.25;1.15;;;7.90;99.90;;;;;;5052338;28;20025;-81
2022/09/17 19:33:35;;;;;;;2.30;0.90;;;7.90;99.90;;;;;;5054686;28;20544;-81
2022/09/17 19:36:03;;;;;;;1.15;0.80;;;7.90;99.90;;;;;;5087825;28;20488;-80
2022/09/17 19:38:30;;;;;;;0.77;0.70;;;7.90;99.90;;;;;;5044760;28;20549;-81
2022/09/17 19:41:06;;;;;;;2.90;1.00;;;7.90;99.90;;;;;;5076031;28;20063;-79
2022/09/17 19:43:32;;;;;;;2.50;1.02;;;7.90;99.90;;;;;;5051718;28;20032;-79
2022/09/17 19:46:01;;;;;;;0.80;0.70;;;7.90;99.90;;;;;;5079926;28;20031;-81
2022/09/17 19:48:28;;;;;;;1.95;0.65;;;7.90;99.90;;;;;;5064824;28;20088;-81
2022/09/17 19:50:54;;;;;;;1.63;1.00;;;7.90;99.90;;;;;;5052676;28;20032;-80
2022/09/17 19:53:20;;;;;;;0.70;0.70;;;7.90;99.90;;;;;;5068767;28;20036;-81
2022/09/17 19:55:46;;;;;;;1.75;0.80;;;7.80;99.90;;;;;;5076248;28;20082;-80
2022/09/17 19:58:13;;;;;;;1.02;0.70;;;7.80;99.90;;;;;;5051181;28;20726;-79
2022/09/17 20:00:39;;;;;;;0.73;0.70;;;7.80;99.90;;;;;;5078131;28;20651;-80
2022/09/17 20:03:05;;;;;;;2.50;0.80;;;7.80;99.90;;;;;;5053308;28;20072;-80
2022/09/17 20:05:31;;;;;;;3.15;0.75;;;7.80;99.90;;;;;;5040400;28;20036;-80
2022/09/17 20:07:57;;;;;;;22.88;1.73;;;7.80;99.90;;;;;;5067245;28;20052;-79
2022/09/17 20:10:23;;;;;;;22.98;1.30;;;7.80;99.90;;;;;;5068043;28;20036;-79
2022/09/17 20:12:48;;;;;;;43.28;2.13;;;7.80;99.90;;;;;;5078474;28;20160;-80
2022/09/17 20:15:14;;;;;;;4.07;0.98;;;7.80;99.90;;;;;;5067118;28;20094;-79
2022/09/17 20:17:40;;;;;;;2.17;1.02;;;7.80;99.90;;;;;;5060588;28;20706;-79
2022/09/17 20:20:06;;;;;;;0.90;0.90;;;7.80;99.90;;;;;;5050996;28;20036;-80
2022/09/17 20:22:32;;;;;;;2.05;1.10;;;7.80;99.90;;;;;;5063741;28;20078;-81
2022/09/17 20:24:57;;;;;;;2.08;0.88;;;7.80;99.90;;;;;;5065796;28;20530;-82
2022/09/17 20:27:23;;;;;;;2.78;0.80;;;7.80;99.90;;;;;;5065637;28;20020;-81
2022/09/17 20:29:49;;;;;;;2.22;1.08;;;7.80;99.90;;;;;;5053136;28;20675;-80
2022/09/17 20:32:15;;;;;;;1.05;0.95;;;7.80;99.90;;;;;;5079547;28;20393;-82
2022/09/17 20:34:40;;;;;;;2.25;0.82;;;7.80;99.90;;;;;;5039041;28;20028;-80
2022/09/17 20:37:07;;;;;;;1.92;0.80;;;7.80;99.90;;;;;;5069758;28;20115;-80
2022/09/17 20:39:32;;;;;;;6.15;1.02;;;7.80;99.90;;;;;;5059073;28;20066;-81
2022/09/17 20:41:58;;;;;;;3.05;0.90;;;7.70;99.90;;;;;;5081704;28;20020;-80
2022/09/17 20:44:24;;;;;;;0.93;0.80;;;7.70;99.90;;;;;;5044178;28;20039;-81
2022/09/17 20:46:49;;;;;;;16.25;1.40;;;7.70;99.90;;;;;;5050467;28;20341;-82
2022/09/17 20:49:15;;;;;;;5.82;0.90;;;7.70;99.90;;;;;;5061244;28;20032;-81
2022/09/17 20:51:41;;;;;;;1.75;1.27;;;7.70;99.90;;;;;;5042585;28;20115;-81
2022/09/17 20:54:08;;;;;;;1.58;1.05;;;7.70;99.90;;;;;;5074655;28;20033;-81
2022/09/17 20:56:34;;;;;;;1.10;1.00;;;7.70;99.90;;;;;;5049666;28;20093;-80
2022/09/17 20:59:08;;;;;;;3.05;0.93;;;7.70;99.90;;;;;;5062441;28;20488;-81
2022/09/17 21:01:36;;;;;;;2.47;1.20;;;7.70;99.90;;;;;;5026772;28;20762;-81
2022/09/17 21:04:04;;;;;;;1.63;0.93;;;7.70;99.90;;;;;;5065089;28;20123;-81
2022/09/17 21:06:32;;;;;;;1.40;1.00;;;7.70;99.90;;;;;;5066023;28;20029;-82
2022/09/17 21:08:59;;;;;;;2.58;0.82;;;7.60;99.90;;;;;;5049812;28;20199;-81
2022/09/17 21:11:25;;;;;;;1.10;1.00;;;7.60;99.90;;;;;;5049081;28;20481;-81
2022/09/17 21:13:51;;;;;;;3.83;1.00;;;7.60;99.90;;;;;;5049786;28;20043;-81
2022/09/17 21:16:17;;;;;;;1.45;0.80;;;7.60;99.90;;;;;;5064259;28;20039;-81
2022/09/17 21:18:43;;;;;;;2.38;1.00;;;7.60;99.90;;;;;;5078544;28;20036;-80
2022/09/17 21:21:11;;;;;;;2.05;0.73;;;7.60;99.90;;;;;;5058002;28;20107;-80
2022/09/17 21:23:38;;;;;;;6.13;1.15;;;7.60;99.90;;;;;;5057504;28;20433;-81
2022/09/17 21:26:11;;;;;;;5.28;0.90;;;7.60;99.90;;;;;;5073754;28;20059;-80
2022/09/17 21:28:38;;;;;;;2.08;0.75;;;7.60;99.90;;;;;;5062498;28;20548;-81